sensor_id;sensor_type;location;lat;lon;timestamp;pressure;altitude;pressure_sealevel;temperature;humidity
59757;BME280;45631;51.962;5.974;2023-03-25T00:01:16;99987.66;;;8.39;100.00
59757;BME280;45631;51.962;5.974;2023-03-25T00:03:46;99990.25;;;8.39;100.00
59757;BME280;45631;51.962;5.974;2023-03-25T00:06:16;99991.19;;;8.38;100.00
59757;BME280;45631;51.962;5.974;2023-03-25T00:08:44;99991.09;;;8.39;100.00
59757;BME280;45631;51.962;5.974;2023-03-25T00:11:13;99992.66;;;8.42;100.00
59757;BME280;45631;51.962;5.974;2023-03-25T00:13:41;99995.50;;;8.39;100.00
59757;BME280;45631;51.962;5.974;2023-03-25T00:16:10;99974.03;;;8.34;100.00
59757;BME280;45631;51.962;5.974;2023-03-25T00:18:38;99983.44;;;8.36;100.00
59757;BME280;45631;51.962;5.974;2023-03-25T00:21:08;99978.50;;;8.32;100.00
59757;BME280;45631;51.962;5.974;2023-03-25T00:23:38;99975.72;;;8.35;100.00
59757;BME280;45631;51.962;5.974;2023-03-25T00:26:07;99980.72;;;8.38;100.00
59757;BME280;45631;51.962;5.974;2023-03-25T00:28:36;99975.72;;;8.35;100.00
59757;BME280;45631;51.962;5.974;2023-03-25T00:31:07;99977.88;;;8.41;100.00
59757;BME280;45631;51.962;5.974;2023-03-25T00:33:36;99979.03;;;8.37;100.00
59757;BME280;45631;51.962;5.974;2023-03-25T00:36:10;99974.66;;;8.37;100.00
59757;BME280;45631;51.962;5.974;2023-03-25T00:38:39;99973.91;;;8.35;100.00
59757;BME280;45631;51.962;5.974;2023-03-25T00:41:13;99978.63;;;8.43;100.00
59757;BME280;45631;51.962;5.974;2023-03-25T00:43:44;99974.31;;;8.42;100.00
59757;BME280;45631;51.962;5.974;2023-03-25T00:46:12;99975.38;;;8.39;100.00
59757;BME280;45631;51.962;5.974;2023-03-25T00:48:40;99974.22;;;8.43;100.00
59757;BME280;45631;51.962;5.974;2023-03-25T00:51:10;99967.28;;;8.42;100.00
59757;BME280;45631;51.962;5.974;2023-03-25T00:53:40;99968.38;;;8.40;100.00
59757;BME280;45631;51.962;5.974;2023-03-25T00:56:08;99967.50;;;8.39;100.00
59757;BME280;45631;51.962;5.974;2023-03-25T00:58:36;99966.47;;;8.42;100.00
59757;BME280;45631;51.962;5.974;2023-03-25T01:01:09;99973.50;;;8.41;100.00
59757;BME280;45631;51.962;5.974;2023-03-25T01:03:39;99970.03;;;8.41;100.00
59757;BME280;45631;51.962;5.974;2023-03-25T01:06:12;99967.00;;;8.47;100.00
59757;BME280;45631;51.962;5.974;2023-03-25T01:08:42;99969.63;;;8.47;100.00
59757;BME280;45631;51.962;5.974;2023-03-25T01:11:18;99972.38;;;8.45;100.00
59757;BME280;45631;51.962;5.974;2023-03-25T01:13:46;99972.97;;;8.49;100.00
59757;BME280;45631;51.962;5.974;2023-03-25T01:16:14;99965.22;;;8.48;100.00
59757;BME280;45631;51.962;5.974;2023-03-25T01:18:42;99970.47;;;8.48;100.00
59757;BME280;45631;51.962;5.974;2023-03-25T01:21:12;99968.97;;;8.43;100.00
59757;BME280;45631;51.962;5.974;2023-03-25T01:23:40;99962.16;;;8.41;100.00
59757;BME280;45631;51.962;5.974;2023-03-25T01:26:09;99976.75;;;8.45;100.00
59757;BME280;45631;51.962;5.974;2023-03-25T01:28:39;99963.72;;;8.43;100.00
59757;BME280;45631;51.962;5.974;2023-03-25T01:31:09;99964.59;;;8.44;100.00
59757;BME280;45631;51.962;5.974;2023-03-25T01:33:37;99964.59;;;8.44;100.00
59757;BME280;45631;51.962;5.974;2023-03-25T01:36:06;99966.28;;;8.45;100.00
59757;BME280;45631;51.962;5.974;2023-03-25T01:38:41;99958.41;;;8.45;100.00
59757;BME280;45631;51.962;5.974;2023-03-25T01:41:09;99960.19;;;8.44;100.00
59757;BME280;45631;51.962;5.974;2023-03-25T01:43:37;99962.72;;;8.46;100.00
59757;BME280;45631;51.962;5.974;2023-03-25T01:46:10;99954.09;;;8.44;100.00
59757;BME280;45631;51.962;5.974;2023-03-25T01:48:42;99956.66;;;8.45;100.00
59757;BME280;45631;51.962;5.974;2023-03-25T01:51:17;99952.22;;;8.46;100.00
59757;BME280;45631;51.962;5.974;2023-03-25T01:53:49;99944.38;;;8.46;100.00
59757;BME280;45631;51.962;5.974;2023-03-25T01:56:23;99953.38;;;8.42;100.00
59757;BME280;45631;51.962;5.974;2023-03-25T01:58:52;99951.56;;;8.42;100.00
59757;BME280;45631;51.962;5.974;2023-03-25T02:01:22;99947.28;;;8.41;100.00
59757;BME280;45631;51.962;5.974;2023-03-25T02:03:53;99955.03;;;8.43;100.00
59757;BME280;45631;51.962;5.974;2023-03-25T02:06:32;99950.75;;;8.42;100.00
59757;BME280;45631;51.962;5.974;2023-03-25T02:09:06;99959.34;;;8.44;100.00
59757;BME280;45631;51.962;5.974;2023-03-25T02:11:34;99950.25;;;8.50;100.00
59757;BME280;45631;51.962;5.974;2023-03-25T02:14:06;99951.69;;;8.41;100.00
59757;BME280;45631;51.962;5.974;2023-03-25T02:16:42;99944.03;;;8.38;100.00
59757;BME280;45631;51.962;5.974;2023-03-25T02:19:38;99952.66;;;8.40;100.00
59757;BME280;45631;51.962;5.974;2023-03-25T02:22:48;99954.53;;;8.38;100.00
59757;BME280;45631;51.962;5.974;2023-03-25T02:25:48;99947.81;;;8.34;100.00
59757;BME280;45631;51.962;5.974;2023-03-25T02:28:23;99944.56;;;8.30;100.00
59757;BME280;45631;51.962;5.974;2023-03-25T02:31:13;99946.78;;;8.23;100.00
59757;BME280;45631;51.962;5.974;2023-03-25T02:34:13;99952.97;;;8.22;100.00
59757;BME280;45631;51.962;5.974;2023-03-25T02:37:20;99941.75;;;8.20;100.00
59757;BME280;45631;51.962;5.974;2023-03-25T02:39:57;99936.31;;;8.10;100.00
59757;BME280;45631;51.962;5.974;2023-03-25T02:42:32;99943.53;;;8.07;100.00
59757;BME280;45631;51.962;5.974;2023-03-25T02:45:04;99940.94;;;8.07;100.00
59757;BME280;45631;51.962;5.974;2023-03-25T02:47:38;99953.53;;;8.02;100.00
59757;BME280;45631;51.962;5.974;2023-03-25T02:50:13;99942.41;;;7.98;100.00
59757;BME280;45631;51.962;5.974;2023-03-25T02:52:45;99938.44;;;7.92;100.00
59757;BME280;45631;51.962;5.974;2023-03-25T02:55:18;99937.28;;;7.97;100.00
59757;BME280;45631;51.962;5.974;2023-03-25T02:57:50;99938.31;;;7.94;100.00
59757;BME280;45631;51.962;5.974;2023-03-25T03:00:23;99936.34;;;7.98;100.00
59757;BME280;45631;51.962;5.974;2023-03-25T03:02:54;99936.13;;;8.01;100.00
59757;BME280;45631;51.962;5.974;2023-03-25T03:05:28;99924.19;;;7.97;100.00
59757;BME280;45631;51.962;5.974;2023-03-25T03:08:10;99942.53;;;7.97;100.00
59757;BME280;45631;51.962;5.974;2023-03-25T03:10:50;99927.09;;;7.92;100.00
59757;BME280;45631;51.962;5.974;2023-03-25T03:13:25;99938.44;;;7.92;100.00
59757;BME280;45631;51.962;5.974;2023-03-25T03:16:02;99938.31;;;7.94;100.00
59757;BME280;45631;51.962;5.974;2023-03-25T03:18:43;99925.00;;;7.97;100.00
59757;BME280;45631;51.962;5.974;2023-03-25T03:21:17;99940.31;;;7.90;100.00
59757;BME280;45631;51.962;5.974;2023-03-25T03:23:56;99934.75;;;7.82;100.00
59757;BME280;45631;51.962;5.974;2023-03-25T03:26:36;99933.50;;;7.75;100.00
59757;BME280;45631;51.962;5.974;2023-03-25T03:29:10;99937.50;;;7.68;100.00
59757;BME280;45631;51.962;5.974;2023-03-25T03:31:42;99948.13;;;7.65;100.00
59757;BME280;45631;51.962;5.974;2023-03-25T03:34:33;99940.28;;;7.65;100.00
59757;BME280;45631;51.962;5.974;2023-03-25T03:37:07;99928.56;;;7.57;100.00
59757;BME280;45631;51.962;5.974;2023-03-25T03:39:37;99936.09;;;7.62;100.00
59757;BME280;45631;51.962;5.974;2023-03-25T03:42:09;99921.03;;;7.66;100.00
59757;BME280;45631;51.962;5.974;2023-03-25T03:44:42;99925.63;;;7.62;100.00
59757;BME280;45631;51.962;5.974;2023-03-25T03:47:14;99931.41;;;7.54;100.00
59757;BME280;45631;51.962;5.974;2023-03-25T03:49:49;99922.81;;;7.52;100.00
59757;BME280;45631;51.962;5.974;2023-03-25T03:52:21;99940.06;;;7.55;100.00
59757;BME280;45631;51.962;5.974;2023-03-25T03:54:52;99930.88;;;7.49;100.00
59757;BME280;45631;51.962;5.974;2023-03-25T03:57:26;99929.28;;;7.47;100.00
59757;BME280;45631;51.962;5.974;2023-03-25T04:00:02;99929.72;;;7.53;100.00
59757;BME280;45631;51.962;5.974;2023-03-25T04:02:36;99930.34;;;7.57;100.00
59757;BME280;45631;51.962;5.974;2023-03-25T04:05:06;99923.56;;;7.54;100.00
59757;BME280;45631;51.962;5.974;2023-03-25T04:07:39;99932.97;;;7.57;100.00
59757;BME280;45631;51.962;5.974;2023-03-25T04:10:11;99938.81;;;7.60;100.00
59757;BME280;45631;51.962;5.974;2023-03-25T04:12:45;99926.69;;;7.59;100.00
59757;BME280;45631;51.962;5.974;2023-03-25T04:15:14;99929.41;;;7.58;100.00
59757;BME280;45631;51.962;5.974;2023-03-25T04:17:43;99937.78;;;7.63;100.00
59757;BME280;45631;51.962;5.974;2023-03-25T04:20:15;99938.63;;;7.64;100.00
59757;BME280;45631;51.962;5.974;2023-03-25T04:22:49;99933.19;;;7.67;100.00
59757;BME280;45631;51.962;5.974;2023-03-25T04:25:18;99928.34;;;7.60;100.00
59757;BME280;45631;51.962;5.974;2023-03-25T04:27:49;99926.69;;;7.59;100.00
59757;BME280;45631;51.962;5.974;2023-03-25T04:30:25;99924.16;;;7.58;100.00
59757;BME280;45631;51.962;5.974;2023-03-25T04:32:54;99920.59;;;7.59;100.00
59757;BME280;45631;51.962;5.974;2023-03-25T04:35:23;99920.59;;;7.59;100.00
59757;BME280;45631;51.962;5.974;2023-03-25T04:37:51;99922.19;;;7.61;100.00
59757;BME280;45631;51.962;5.974;2023-03-25T04:40:22;99917.28;;;7.57;100.00
59757;BME280;45631;51.962;5.974;2023-03-25T04:42:52;99923.56;;;7.54;100.00
59757;BME280;45631;51.962;5.974;2023-03-25T04:45:22;99923.34;;;7.57;100.00
59757;BME280;45631;51.962;5.974;2023-03-25T04:47:51;99921.66;;;7.56;100.00
59757;BME280;45631;51.962;5.974;2023-03-25T04:50:22;99913.09;;;7.54;100.00
59757;BME280;45631;51.962;5.974;2023-03-25T04:52:51;99918.41;;;7.53;100.00
59757;BME280;45631;51.962;5.974;2023-03-25T04:55:20;99924.59;;;7.52;100.00
59757;BME280;45631;51.962;5.974;2023-03-25T04:57:49;99918.94;;;7.58;100.00
59757;BME280;45631;51.962;5.974;2023-03-25T05:00:21;99915.38;;;7.59;100.00
59757;BME280;45631;51.962;5.974;2023-03-25T05:02:52;99908.56;;;7.56;100.00
59757;BME280;45631;51.962;5.974;2023-03-25T05:05:21;99912.66;;;7.60;100.00
59757;BME280;45631;51.962;5.974;2023-03-25T05:07:53;99919.47;;;7.63;100.00
59757;BME280;45631;51.962;5.974;2023-03-25T05:10:25;99923.88;;;7.63;100.00
59757;BME280;45631;51.962;5.974;2023-03-25T05:12:57;99912.47;;;7.64;100.00
59757;BME280;45631;51.962;5.974;2023-03-25T05:15:29;99918.53;;;7.64;100.00
59757;BME280;45631;51.962;5.974;2023-03-25T05:17:58;99915.81;;;7.66;100.00
59757;BME280;45631;51.962;5.974;2023-03-25T05:20:27;99917.47;;;7.67;100.00
59757;BME280;45631;51.962;5.974;2023-03-25T05:22:56;99918.13;;;7.70;100.00
59757;BME280;45631;51.962;5.974;2023-03-25T05:25:24;99924.19;;;7.71;100.00
59757;BME280;45631;51.962;5.974;2023-03-25T05:27:54;99926.81;;;7.71;100.00
59757;BME280;45631;51.962;5.974;2023-03-25T05:30:22;99934.22;;;7.77;100.00
59757;BME280;45631;51.962;5.974;2023-03-25T05:32:52;99930.47;;;7.81;100.00
59757;BME280;45631;51.962;5.974;2023-03-25T05:35:25;99925.53;;;7.76;100.00
59757;BME280;45631;51.962;5.974;2023-03-25T05:37:53;99929.00;;;7.77;100.00
59757;BME280;45631;51.962;5.974;2023-03-25T05:40:22;99928.28;;;7.75;100.00
59757;BME280;45631;51.962;5.974;2023-03-25T05:42:51;99933.41;;;7.76;100.00
59757;BME280;45631;51.962;5.974;2023-03-25T05:45:21;99941.03;;;7.79;100.00
59757;BME280;45631;51.962;5.974;2023-03-25T05:47:49;99940.22;;;7.79;100.00
59757;BME280;45631;51.962;5.974;2023-03-25T05:50:19;99947.13;;;7.80;100.00
59757;BME280;45631;51.962;5.974;2023-03-25T05:52:48;99941.25;;;7.76;100.00
59757;BME280;45631;51.962;5.974;2023-03-25T05:55:18;99961.88;;;7.81;100.00
59757;BME280;45631;51.962;5.974;2023-03-25T05:57:47;99951.09;;;7.73;100.00
59757;BME280;45631;51.962;5.974;2023-03-25T06:00:16;99950.38;;;7.71;100.00
59757;BME280;45631;51.962;5.974;2023-03-25T06:02:49;99945.13;;;7.71;100.00
59757;BME280;45631;51.962;5.974;2023-03-25T06:05:21;99936.34;;;7.72;100.00
59757;BME280;45631;51.962;5.974;2023-03-25T06:07:50;99960.84;;;7.71;100.00
59757;BME280;45631;51.962;5.974;2023-03-25T06:10:22;99959.47;;;7.78;100.00
59757;BME280;45631;51.962;5.974;2023-03-25T06:12:50;99958.09;;;7.72;100.00
59757;BME280;45631;51.962;5.974;2023-03-25T06:15:20;99965.84;;;7.74;100.00
59757;BME280;45631;51.962;5.974;2023-03-25T06:17:55;99960.63;;;7.74;100.00
59757;BME280;45631;51.962;5.974;2023-03-25T06:20:25;99961.66;;;7.71;100.00
59757;BME280;45631;51.962;5.974;2023-03-25T06:22:53;99963.97;;;7.76;100.00
59757;BME280;45631;51.962;5.974;2023-03-25T06:25:21;99960.72;;;7.72;100.00
59757;BME280;45631;51.962;5.974;2023-03-25T06:27:50;99963.88;;;7.77;100.00
59757;BME280;45631;51.962;5.974;2023-03-25T06:30:19;99966.72;;;7.74;100.00
59757;BME280;45631;51.962;5.974;2023-03-25T06:32:48;99966.06;;;7.71;100.00
59757;BME280;45631;51.962;5.974;2023-03-25T06:35:18;99971.41;;;7.69;100.00
59757;BME280;45631;51.962;5.974;2023-03-25T06:37:48;99972.44;;;7.79;100.00
59757;BME280;45631;51.962;5.974;2023-03-25T06:40:17;99962.94;;;7.78;100.00
59757;BME280;45631;51.962;5.974;2023-03-25T06:42:45;99963.88;;;7.77;100.00
59757;BME280;45631;51.962;5.974;2023-03-25T06:45:14;99970.47;;;7.83;100.00
59757;BME280;45631;51.962;5.974;2023-03-25T06:47:42;99966.91;;;7.84;100.00
59757;BME280;45631;51.962;5.974;2023-03-25T06:50:10;99978.44;;;7.94;100.00
59757;BME280;45631;51.962;5.974;2023-03-25T06:52:38;99972.38;;;7.94;100.00
59757;BME280;45631;51.962;5.974;2023-03-25T06:55:08;99967.25;;;7.92;100.00
59757;BME280;45631;51.962;5.974;2023-03-25T06:57:36;99976.97;;;7.90;100.00
59757;BME280;45631;51.962;5.974;2023-03-25T07:00:06;99975.63;;;7.98;100.00
59757;BME280;45631;51.962;5.974;2023-03-25T07:02:35;99984.41;;;7.97;100.00
59757;BME280;45631;51.962;5.974;2023-03-25T07:05:04;99983.25;;;8.01;100.00
59757;BME280;45631;51.962;5.974;2023-03-25T07:07:32;99978.25;;;7.98;100.00
59757;BME280;45631;51.962;5.974;2023-03-25T07:10:01;99984.53;;;7.95;100.00
59757;BME280;45631;51.962;5.974;2023-03-25T07:12:32;99982.81;;;8.07;100.00
59757;BME280;45631;51.962;5.974;2023-03-25T07:15:01;99970.16;;;8.01;100.00
59757;BME280;45631;51.962;5.974;2023-03-25T07:17:29;99977.81;;;8.04;100.00
59757;BME280;45631;51.962;5.974;2023-03-25T07:19:57;99976.31;;;8.12;100.00
59757;BME280;45631;51.962;5.974;2023-03-25T07:22:25;99973.63;;;8.14;100.00
59757;BME280;45631;51.962;5.974;2023-03-25T07:24:53;99963.66;;;8.19;100.00
59757;BME280;45631;51.962;5.974;2023-03-25T07:27:24;99956.88;;;8.17;100.00
59757;BME280;45631;51.962;5.974;2023-03-25T07:29:54;99978.66;;;8.17;100.00
59757;BME280;45631;51.962;5.974;2023-03-25T07:32:24;99983.44;;;8.23;100.00
59757;BME280;45631;51.962;5.974;2023-03-25T07:34:55;99984.59;;;8.19;100.00
59757;BME280;45631;51.962;5.974;2023-03-25T07:37:23;99986.63;;;8.16;100.00
59757;BME280;45631;51.962;5.974;2023-03-25T07:39:51;99985.25;;;8.10;100.00
59757;BME280;45631;51.962;5.974;2023-03-25T07:42:19;99985.97;;;8.12;100.00
59757;BME280;45631;51.962;5.974;2023-03-25T07:44:47;99983.47;;;8.10;100.00
59757;BME280;45631;51.962;5.974;2023-03-25T07:47:17;99996.75;;;8.20;100.00
59757;BME280;45631;51.962;5.974;2023-03-25T07:49:48;99985.03;;;8.26;100.00
59757;BME280;45631;51.962;5.974;2023-03-25T07:52:16;99998.75;;;8.29;100.00
59757;BME280;45631;51.962;5.974;2023-03-25T07:54:44;99997.81;;;8.31;100.00
59757;BME280;45631;51.962;5.974;2023-03-25T07:57:14;99985.31;;;8.34;100.00
59757;BME280;45631;51.962;5.974;2023-03-25T07:59:42;99987.00;;;8.35;100.00
59757;BME280;45631;51.962;5.974;2023-03-25T08:02:11;99999.47;;;8.32;100.00
59757;BME280;45631;51.962;5.974;2023-03-25T08:04:44;99991.94;;;8.40;100.00
59757;BME280;45631;51.962;5.974;2023-03-25T08:07:12;100013.09;;;8.37;100.00
59757;BME280;45631;51.962;5.974;2023-03-25T08:09:42;100007.56;;;8.41;100.00
59757;BME280;45631;51.962;5.974;2023-03-25T08:12:11;100012.38;;;8.35;100.00
59757;BME280;45631;51.962;5.974;2023-03-25T08:14:39;100009.13;;;8.31;100.00
59757;BME280;45631;51.962;5.974;2023-03-25T08:17:07;100024.97;;;8.29;100.00
59757;BME280;45631;51.962;5.974;2023-03-25T08:19:35;100013.72;;;8.27;100.00
59757;BME280;45631;51.962;5.974;2023-03-25T08:22:05;100015.97;;;8.21;100.00
59757;BME280;45631;51.962;5.974;2023-03-25T08:24:33;100021.41;;;8.31;100.00
59757;BME280;45631;51.962;5.974;2023-03-25T08:27:01;100015.00;;;8.35;100.00
59757;BME280;45631;51.962;5.974;2023-03-25T08:29:42;100008.09;;;8.59;100.00
59757;BME280;45631;51.962;5.974;2023-03-25T08:32:10;100018.53;;;8.85;100.00
59757;BME280;45631;51.962;5.974;2023-03-25T08:34:41;100021.16;;;8.85;100.00
59757;BME280;45631;51.962;5.974;2023-03-25T08:37:10;100027.84;;;8.89;100.00
59757;BME280;45631;51.962;5.974;2023-03-25T08:39:39;100019.31;;;8.99;100.00
59757;BME280;45631;51.962;5.974;2023-03-25T08:42:08;100023.72;;;8.98;100.00
59757;BME280;45631;51.962;5.974;2023-03-25T08:44:36;100029.13;;;9.08;100.00
59757;BME280;45631;51.962;5.974;2023-03-25T08:47:07;100016.03;;;9.08;100.00
59757;BME280;45631;51.962;5.974;2023-03-25T08:49:35;100021.25;;;9.08;100.00
59757;BME280;45631;51.962;5.974;2023-03-25T08:52:03;100034.28;;;9.09;100.00
59757;BME280;45631;51.962;5.974;2023-03-25T08:54:35;100022.94;;;9.09;100.00
59757;BME280;45631;51.962;5.974;2023-03-25T08:57:03;100026.75;;;9.05;100.00
59757;BME280;45631;51.962;5.974;2023-03-25T08:59:34;100026.50;;;9.08;100.00
59757;BME280;45631;51.962;5.974;2023-03-25T09:02:03;100031.09;;;9.17;100.00
59757;BME280;45631;51.962;5.974;2023-03-25T09:04:31;100036.34;;;9.17;100.00
59757;BME280;45631;51.962;5.974;2023-03-25T09:06:59;100031.97;;;9.05;100.00
59757;BME280;45631;51.962;5.974;2023-03-25T09:09:39;100040.78;;;9.17;100.00
59757;BME280;45631;51.962;5.974;2023-03-25T09:12:08;100028.94;;;9.11;100.00
59757;BME280;45631;51.962;5.974;2023-03-25T09:14:36;100042.16;;;9.09;100.00
59757;BME280;45631;51.962;5.974;2023-03-25T09:17:04;100026.31;;;9.11;100.00
59757;BME280;45631;51.962;5.974;2023-03-25T09:19:33;100017.47;;;9.36;100.00
59757;BME280;45631;51.962;5.974;2023-03-25T09:22:03;100013.25;;;9.46;100.00
59757;BME280;45631;51.962;5.974;2023-03-25T09:24:35;100016.19;;;9.42;100.00
59757;BME280;45631;51.962;5.974;2023-03-25T09:27:07;100022.81;;;9.47;100.00
59757;BME280;45631;51.962;5.974;2023-03-25T09:29:38;100015.63;;;9.50;100.00
59757;BME280;45631;51.962;5.974;2023-03-25T09:32:06;100009.84;;;9.57;100.00
59757;BME280;45631;51.962;5.974;2023-03-25T09:34:35;100022.22;;;9.55;100.00
59757;BME280;45631;51.962;5.974;2023-03-25T09:37:03;100014.50;;;9.65;100.00
59757;BME280;45631;51.962;5.974;2023-03-25T09:39:32;100023.13;;;9.78;100.00
59757;BME280;45631;51.962;5.974;2023-03-25T09:42:20;100022.91;;;9.81;100.00
59757;BME280;45631;51.962;5.974;2023-03-25T09:44:56;100020.63;;;9.77;100.00
59757;BME280;45631;51.962;5.974;2023-03-25T09:47:38;100030.72;;;9.94;100.00
59757;BME280;45631;51.962;5.974;2023-03-25T09:50:11;100034.53;;;10.02;100.00
59757;BME280;45631;51.962;5.974;2023-03-25T09:52:47;100028.72;;;10.09;100.00
59757;BME280;45631;51.962;5.974;2023-03-25T09:55:20;100044.72;;;10.29;100.00
59757;BME280;45631;51.962;5.974;2023-03-25T09:57:57;100056.19;;;10.17;100.00
59757;BME280;45631;51.962;5.974;2023-03-25T10:00:27;100043.16;;;10.26;100.00
59757;BME280;45631;51.962;5.974;2023-03-25T10:03:06;100043.53;;;10.22;100.00
59757;BME280;45631;51.962;5.974;2023-03-25T10:05:49;100053.38;;;10.42;100.00
59757;BME280;45631;51.962;5.974;2023-03-25T10:08:30;100036.78;;;10.64;100.00
59757;BME280;45631;51.962;5.974;2023-03-25T10:11:04;100044.53;;;10.89;100.00
59757;BME280;45631;51.962;5.974;2023-03-25T10:13:41;100052.97;;;11.15;100.00
59757;BME280;45631;51.962;5.974;2023-03-25T10:16:21;100052.09;;;11.37;100.00
59757;BME280;45631;51.962;5.974;2023-03-25T10:19:02;100043.75;;;11.64;100.00
59757;BME280;45631;51.962;5.974;2023-03-25T10:21:36;100046.19;;;11.56;100.00
59757;BME280;45631;51.962;5.974;2023-03-25T10:24:16;100033.69;;;11.37;100.00
59757;BME280;45631;51.962;5.974;2023-03-25T10:26:47;100064.47;;;11.14;100.00
59757;BME280;45631;51.962;5.974;2023-03-25T10:29:25;100054.56;;;11.06;100.00
59757;BME280;45631;51.962;5.974;2023-03-25T10:31:58;100052.97;;;11.15;100.00
59757;BME280;45631;51.962;5.974;2023-03-25T10:34:33;100061.63;;;11.06;100.00
59757;BME280;45631;51.962;5.974;2023-03-25T10:37:09;100060.44;;;11.10;100.00
59757;BME280;45631;51.962;5.974;2023-03-25T10:39:41;100067.75;;;10.95;100.00
59757;BME280;45631;51.962;5.974;2023-03-25T10:42:18;100068.09;;;10.90;100.00
59757;BME280;45631;51.962;5.974;2023-03-25T10:44:49;100065.13;;;10.72;100.00
59757;BME280;45631;51.962;5.974;2023-03-25T10:47:23;100048.03;;;10.67;100.00
59757;BME280;45631;51.962;5.974;2023-03-25T10:49:54;100055.41;;;10.73;100.00
59757;BME280;45631;51.962;5.974;2023-03-25T10:52:22;100059.50;;;10.54;100.00
59757;BME280;45631;51.962;5.974;2023-03-25T10:54:53;100079.97;;;10.26;100.00
59757;BME280;45631;51.962;5.974;2023-03-25T10:57:25;100077.47;;;10.25;100.00
59757;BME280;45631;51.962;5.974;2023-03-25T11:00:00;100074.75;;;9.67;100.00
59757;BME280;45631;51.962;5.974;2023-03-25T11:02:32;100069.06;;;9.48;100.00
59757;BME280;45631;51.962;5.974;2023-03-25T11:05:03;100083.50;;;9.43;100.00
59757;BME280;45631;51.962;5.974;2023-03-25T11:07:34;100075.06;;;9.51;100.00
59757;BME280;45631;51.962;5.974;2023-03-25T11:10:09;100070.47;;;9.66;100.00
59757;BME280;45631;51.962;5.974;2023-03-25T11:12:38;100066.00;;;9.79;100.00
59757;BME280;45631;51.962;5.974;2023-03-25T11:15:14;100061.59;;;9.91;100.00
59757;BME280;45631;51.962;5.974;2023-03-25T11:17:43;100055.91;;;9.97;100.00
59757;BME280;45631;51.962;5.974;2023-03-25T11:20:19;100063.78;;;9.97;100.00
59757;BME280;45631;51.962;5.974;2023-03-25T11:22:50;100083.34;;;9.93;100.00
59757;BME280;45631;51.962;5.974;2023-03-25T11:25:23;100068.41;;;9.82;100.00
59757;BME280;45631;51.962;5.974;2023-03-25T11:27:55;100073.56;;;9.95;100.00
59757;BME280;45631;51.962;5.974;2023-03-25T11:30:26;100073.13;;;10.01;100.00
59757;BME280;45631;51.962;5.974;2023-03-25T11:32:59;100079.13;;;10.14;100.00
59757;BME280;45631;51.962;5.974;2023-03-25T11:35:31;100068.78;;;10.47;100.00
59757;BME280;45631;51.962;5.974;2023-03-25T11:38:07;100080.16;;;10.70;100.00
59757;BME280;45631;51.962;5.974;2023-03-25T11:40:48;100075.38;;;10.98;100.00
59757;BME280;45631;51.962;5.974;2023-03-25T11:43:19;100066.56;;;11.43;100.00
59757;BME280;45631;51.962;5.974;2023-03-25T11:45:51;100065.47;;;11.78;100.00
59757;BME280;45631;51.962;5.974;2023-03-25T11:48:21;100065.72;;;11.75;100.00
59757;BME280;45631;51.962;5.974;2023-03-25T11:50:54;100070.31;;;11.61;100.00
59757;BME280;45631;51.962;5.974;2023-03-25T11:53:25;100078.09;;;11.30;100.00
59757;BME280;45631;51.962;5.974;2023-03-25T11:55:55;100092.81;;;11.22;100.00
59757;BME280;45631;51.962;5.974;2023-03-25T11:58:29;100091.63;;;11.14;100.00
59757;BME280;45631;51.962;5.974;2023-03-25T12:01:03;100095.94;;;11.15;100.00
59757;BME280;45631;51.962;5.974;2023-03-25T12:03:33;100110.66;;;11.18;100.00
59757;BME280;45631;51.962;5.974;2023-03-25T12:06:04;100095.53;;;11.31;100.00
59757;BME280;45631;51.962;5.974;2023-03-25T12:08:41;100089.06;;;11.36;100.00
59757;BME280;45631;51.962;5.974;2023-03-25T12:11:13;100093.97;;;11.40;100.00
59757;BME280;45631;51.962;5.974;2023-03-25T12:13:52;100084.19;;;11.31;100.00
59757;BME280;45631;51.962;5.974;2023-03-25T12:16:27;100075.75;;;11.81;100.00
59757;BME280;45631;51.962;5.974;2023-03-25T12:19:07;100074.56;;;11.74;100.00
59757;BME280;45631;51.962;5.974;2023-03-25T12:21:46;100071.50;;;11.69;100.00
59757;BME280;45631;51.962;5.974;2023-03-25T12:24:27;100059.56;;;11.53;100.00
59757;BME280;45631;51.962;5.974;2023-03-25T12:27:13;100062.47;;;11.50;100.00
59757;BME280;45631;51.962;5.974;2023-03-25T12:29:50;100051.94;;;11.50;100.00
59757;BME280;45631;51.962;5.974;2023-03-25T12:32:28;100049.75;;;11.55;100.00
59757;BME280;45631;51.962;5.974;2023-03-25T12:35:15;100061.50;;;11.51;100.00
59757;BME280;45631;51.962;5.974;2023-03-25T12:38:00;100059.97;;;11.48;100.00
59757;BME280;45631;51.962;5.974;2023-03-25T12:40:44;100053.19;;;11.67;100.00
59757;BME280;45631;51.962;5.974;2023-03-25T12:43:21;100050.97;;;11.83;100.00
59757;BME280;45631;51.962;5.974;2023-03-25T12:46:01;100042.13;;;12.06;100.00
59757;BME280;45631;51.962;5.974;2023-03-25T12:48:45;100046.41;;;12.49;100.00
59757;BME280;45631;51.962;5.974;2023-03-25T12:51:24;100033.66;;;13.05;100.00
59757;BME280;45631;51.962;5.974;2023-03-25T12:54:04;100051.88;;;13.08;100.00
59757;BME280;45631;51.962;5.974;2023-03-25T12:56:43;100054.13;;;12.81;100.00
59757;BME280;45631;51.962;5.974;2023-03-25T12:59:35;100082.81;;;12.34;100.00
59757;BME280;45631;51.962;5.974;2023-03-25T13:02:22;100102.78;;;11.50;100.00
59757;BME280;45631;51.962;5.974;2023-03-25T13:05:04;100085.06;;;10.97;100.00
59757;BME280;45631;51.962;5.974;2023-03-25T13:07:35;100086.38;;;10.80;100.00
59757;BME280;45631;51.962;5.974;2023-03-25T13:10:13;100087.94;;;10.60;100.00
59757;BME280;45631;51.962;5.974;2023-03-25T13:12:47;100095.28;;;10.32;100.00
59757;BME280;45631;51.962;5.974;2023-03-25T13:15:19;100088.34;;;10.31;100.00
59757;BME280;45631;51.962;5.974;2023-03-25T13:17:56;100089.28;;;10.30;100.00
59757;BME280;45631;51.962;5.974;2023-03-25T13:20:29;100088.56;;;10.17;100.00